Time;durP1;ratioP1;P1;durP2;ratioP2;P2;SDS_P1;SDS_P2;PMS_P1;PMS_P2;Temp;Humidity;BMP_temperature;BMP_pressure;BME280_temperature;BME280_humidity;BME280_pressure;Samples;Min_cycle;Max_cycle;Signal;HPM_P1;HPM_P2
2022/10/21 00:00:57;;;;;;;25.67;13.48;;;;;;;6.77;72.97;100793.00;4484942;31;33657;-79
2022/10/21 00:03:26;;;;;;;26.50;12.85;;;;;;;6.47;73.62;100792.47;4494443;31;34144;-78
2022/10/21 00:05:54;;;;;;;23.35;13.65;;;;;;;6.58;73.72;100784.66;4492983;31;33617;-79
2022/10/21 00:08:22;;;;;;;22.62;13.32;;;;;;;6.69;74.52;100783.78;4482218;31;33641;-78
2022/10/21 00:10:56;;;;;;;21.87;13.38;;;;;;;6.97;73.42;100791.00;4493533;31;33648;-79
2022/10/21 00:13:25;;;;;;;21.10;12.50;;;;;;;7.03;72.26;100783.72;4476813;31;33529;-79
2022/10/21 00:16:14;;;;;;;23.30;14.13;;;;;;;7.14;71.74;100785.44;4493596;31;33808;-80
2022/10/21 00:18:43;;;;;;;21.48;12.00;;;;;;;6.74;71.84;100782.47;4480880;31;34963;-79
2022/10/21 00:21:16;;;;;;;21.15;12.32;;;;;;;7.06;70.52;100781.41;4485254;31;33678;-79
2022/10/21 00:23:44;;;;;;;20.50;12.80;;;;;;;6.84;71.45;100779.81;4492228;31;33044;-80
2022/10/21 00:26:13;;;;;;;18.33;11.68;;;;;;;7.28;69.90;100769.31;4489174;31;33721;-79
2022/10/21 00:28:41;;;;;;;22.13;12.02;;;;;;;7.27;70.20;100772.66;4492018;31;33777;-80
2022/10/21 00:31:10;;;;;;;21.83;12.57;;;;;;;6.98;72.24;100764.47;4484103;31;33879;-79
2022/10/21 00:33:38;;;;;;;21.52;12.45;;;;;;;7.14;71.82;100764.81;4482744;31;32090;-78
2022/10/21 00:36:06;;;;;;;23.65;12.90;;;;;;;7.42;70.08;100766.88;4486417;31;33654;-79
2022/10/21 00:38:34;;;;;;;20.05;11.90;;;;;;;7.46;69.21;100755.97;4484269;31;34668;-78
2022/10/21 00:41:02;;;;;;;20.48;11.35;;;;;;;7.72;68.56;100750.09;4482679;31;33963;-79
2022/10/21 00:43:29;;;;;;;19.48;11.63;;;;;;;7.39;69.71;100746.00;4486939;31;33458;-79
2022/10/21 00:46:01;;;;;;;17.85;10.80;;;;;;;7.63;69.13;100746.84;4479207;31;33836;-78
2022/10/21 00:48:33;;;;;;;18.55;10.88;;;;;;;7.46;68.07;100749.13;4477400;32;33772;-80
2022/10/21 00:51:10;;;;;;;17.48;10.18;;;;;;;6.63;71.53;100758.47;4473915;32;33588;-79
2022/10/21 00:53:41;;;;;;;16.80;10.88;;;;;;;6.22;73.56;100751.06;4474216;31;34155;-79
2022/10/21 00:56:11;;;;;;;17.77;10.75;;;;;;;6.41;72.74;100749.88;4487457;31;34332;-79
2022/10/21 00:58:45;;;;;;;17.10;10.02;;;;;;;6.66;72.39;100747.50;4470858;31;33698;-80
2022/10/21 01:01:13;;;;;;;16.80;10.00;;;;;;;7.16;71.06;100741.75;4476415;32;32609;-78
2022/10/21 01:03:48;;;;;;;15.93;9.38;;;;;;;7.10;71.56;100739.63;4494063;31;34303;-80
2022/10/21 01:06:19;;;;;;;16.10;9.73;;;;;;;6.63;72.42;100742.13;4474546;31;33726;-80
2022/10/21 01:08:47;;;;;;;19.27;9.68;;;;;;;7.13;70.67;100734.69;4479429;31;34618;-78
2022/10/21 01:11:17;;;;;;;18.25;10.40;;;;;;;7.18;70.43;100720.44;4477911;32;33782;-80
2022/10/21 01:14:03;;;;;;;18.15;10.18;;;;;;;7.37;69.47;100726.97;4484710;31;33437;-79
2022/10/21 01:16:43;;;;;;;15.43;9.50;;;;;;;7.28;69.42;100732.31;4469867;32;33754;-79
2022/10/21 01:19:26;;;;;;;20.67;9.85;;;;;;;7.10;70.25;100726.75;4479445;31;33626;-79
2022/10/21 01:22:07;;;;;;;17.45;9.95;;;;;;;6.85;70.74;100734.34;4498213;31;33424;-79
2022/10/21 01:24:53;;;;;;;15.82;9.50;;;;;;;7.05;71.12;100722.91;4482366;31;33968;-79
2022/10/21 01:27:24;;;;;;;14.30;9.07;;;;;;;6.66;72.41;100732.97;4487876;31;33477;-79
2022/10/21 01:30:06;;;;;;;15.63;9.15;;;;;;;7.03;71.93;100729.63;4494616;31;34085;-79
2022/10/21 01:32:34;;;;;;;14.52;9.43;;;;;;;7.24;70.92;100728.66;4487066;31;34593;-79
2022/10/21 01:35:10;;;;;;;14.13;8.98;;;;;;;5.93;74.20;100724.72;4492347;31;33204;-79
2022/10/21 01:37:43;;;;;;;13.43;8.82;;;;;;;6.36;73.04;100716.09;4500618;31;34628;-79
2022/10/21 01:40:18;;;;;;;16.58;9.18;;;;;;;6.64;72.59;100713.03;4483336;31;34147;-79
2022/10/21 01:42:58;;;;;;;16.95;9.23;;;;;;;6.33;73.40;100700.41;4490227;31;34309;-78
2022/10/21 01:45:28;;;;;;;17.08;10.35;;;;;;;5.54;77.57;100698.56;4474025;32;34063;-78
2022/10/21 01:48:05;;;;;;;17.77;10.77;;;;;;;6.11;74.95;100682.47;4487324;31;33555;-79
2022/10/21 01:50:36;;;;;;;17.92;10.35;;;;;;;6.26;73.95;100698.19;4476770;31;34506;-78
2022/10/21 01:53:08;;;;;;;14.55;9.60;;;;;;;5.59;74.48;100694.69;4483940;31;33763;-80
2022/10/21 01:55:37;;;;;;;18.62;10.93;;;;;;;5.94;73.80;100693.97;4484358;32;33404;-78
2022/10/21 01:58:08;;;;;;;15.85;10.13;;;;;;;6.16;72.61;100700.81;4471190;32;33911;-79
2022/10/21 02:00:36;;;;;;;15.25;8.95;;;;;;;5.63;74.24;100704.44;4479651;31;33682;-78
2022/10/21 02:03:07;;;;;;;15.55;8.90;;;;;;;5.91;74.32;100714.34;4481230;31;34047;-79
2022/10/21 02:05:35;;;;;;;18.27;9.15;;;;;;;6.12;74.39;100693.63;4478487;31;33397;-79
2022/10/21 02:08:02;;;;;;;15.68;8.77;;;;;;;5.81;75.22;100702.41;4476676;31;34360;-79
2022/10/21 02:10:38;;;;;;;13.70;7.82;;;;;;;6.05;74.44;100697.44;4473877;31;33750;-78
2022/10/21 02:13:09;;;;;;;18.85;8.70;;;;;;;5.89;74.95;100700.44;4471330;31;33102;-78
2022/10/21 02:15:37;;;;;;;15.35;8.13;;;;;;;6.08;75.43;100697.63;4487447;31;33376;-80
2022/10/21 02:18:15;;;;;;;15.30;8.05;;;;;;;6.54;74.05;100706.28;4479829;31;34022;-80
2022/10/21 02:20:43;;;;;;;13.27;6.62;;;;;;;6.13;73.90;100723.75;4479470;32;34605;-78
2022/10/21 02:23:14;;;;;;;11.48;6.75;;;;;;;6.94;71.41;100713.53;4483368;32;33996;-79
2022/10/21 02:25:43;;;;;;;12.30;7.50;;;;;;;6.76;71.77;100713.03;4478420;32;33228;-79
2022/10/21 02:28:12;;;;;;;13.93;8.65;;;;;;;6.57;72.72;100700.50;4469314;31;34435;-80
2022/10/21 02:31:01;;;;;;;13.55;7.07;;;;;;;6.60;72.11;100705.84;4483946;31;33506;-79
2022/10/21 02:34:02;;;;;;;14.40;7.62;;;;;;;7.08;71.33;100707.69;4474438;31;34114;-79
2022/10/21 02:36:36;;;;;;;12.52;8.13;;;;;;;7.42;69.50;100720.47;4481467;31;33999;-79
2022/10/21 02:39:31;;;;;;;12.07;7.65;;;;;;;7.08;70.47;100724.03;4482674;31;33932;-79
2022/10/21 02:42:00;;;;;;;14.20;8.48;;;;;;;7.21;70.55;100709.50;4462400;32;32544;-78
2022/10/21 02:44:28;;;;;;;13.65;8.68;;;;;;;7.00;69.38;100693.38;4475637;31;34794;-79
2022/10/21 02:46:55;;;;;;;12.70;7.62;;;;;;;6.18;73.26;100691.53;4479753;32;33484;-79
2022/10/21 02:49:23;;;;;;;14.75;8.50;;;;;;;6.88;70.87;100688.22;4481600;31;33591;-79
2022/10/21 02:51:50;;;;;;;14.35;7.87;;;;;;;6.09;71.60;100704.59;4491743;31;34615;-79
2022/10/21 02:54:18;;;;;;;13.82;8.68;;;;;;;6.02;72.36;100695.50;4479448;31;33751;-78
2022/10/21 02:56:45;;;;;;;14.50;8.05;;;;;;;6.40;72.09;100692.38;4475143;31;33946;-78
2022/10/21 02:59:13;;;;;;;12.88;7.75;;;;;;;6.39;72.40;100695.72;4479047;31;33737;-80
2022/10/21 03:01:40;;;;;;;13.18;7.57;;;;;;;4.85;77.04;100708.44;4479579;31;34747;-78
2022/10/21 03:04:08;;;;;;;14.82;8.30;;;;;;;4.58;79.87;100707.03;4476210;31;33815;-80
2022/10/21 03:06:35;;;;;;;15.27;8.50;;;;;;;4.39;80.29;100710.66;4478225;31;34074;-78
2022/10/21 03:09:04;;;;;;;16.05;8.23;;;;;;;4.50;80.57;100715.03;4478345;31;32636;-78
2022/10/21 03:11:31;;;;;;;14.63;8.55;;;;;;;4.68;80.25;100722.47;4475818;31;33917;-79
2022/10/21 03:13:59;;;;;;;15.45;8.27;;;;;;;4.87;78.69;100718.06;4475708;31;33915;-78
2022/10/21 03:16:26;;;;;;;13.98;8.32;;;;;;;4.05;82.08;100705.25;4480678;31;34276;-80
2022/10/21 03:18:54;;;;;;;14.15;8.70;;;;;;;4.78;79.66;100701.91;4479541;32;33832;-80
2022/10/21 03:21:21;;;;;;;13.80;8.40;;;;;;;5.56;77.25;100702.16;4481222;31;33774;-78
2022/10/21 03:23:48;;;;;;;14.40;8.93;;;;;;;5.89;76.29;100705.56;4477138;31;33763;-80
2022/10/21 03:26:16;;;;;;;14.23;8.32;;;;;;;6.00;74.93;100704.75;4477919;31;34010;-78
2022/10/21 03:28:43;;;;;;;15.57;9.02;;;;;;;5.68;75.16;100699.69;4474296;31;33785;-79
2022/10/21 03:31:11;;;;;;;15.38;8.85;;;;;;;6.23;73.50;100685.06;4480754;31;33645;-80
2022/10/21 03:33:38;;;;;;;11.63;7.60;;;;;;;6.46;72.97;100674.81;4480178;31;34755;-79
2022/10/21 03:36:06;;;;;;;12.57;7.40;;;;;;;6.44;71.93;100673.81;4480974;31;33462;-78
2022/10/21 03:38:33;;;;;;;13.23;8.20;;;;;;;6.23;71.56;100677.34;4476974;31;33347;-80
2022/10/21 03:41:01;;;;;;;13.77;6.62;;;;;;;5.68;73.04;100685.16;4471020;32;33428;-78
2022/10/21 03:43:28;;;;;;;13.75;7.03;;;;;;;5.99;71.75;100676.34;4479103;31;33878;-80
2022/10/21 03:45:56;;;;;;;13.57;8.35;;;;;;;6.41;70.24;100682.97;4477149;31;33170;-79
2022/10/21 03:48:23;;;;;;;14.35;8.15;;;;;;;6.17;71.18;100676.88;4472952;31;34480;-78
2022/10/21 03:50:51;;;;;;;13.38;8.63;;;;;;;5.89;72.80;100664.44;4473989;31;33874;-79
2022/10/21 03:53:18;;;;;;;15.38;7.78;;;;;;;6.28;71.91;100665.75;4471263;31;33629;-78
2022/10/21 03:56:06;;;;;;;13.62;7.75;;;;;;;6.28;71.45;100671.78;4475955;31;33663;-80
2022/10/21 03:58:34;;;;;;;16.73;8.20;;;;;;;5.81;72.11;100662.94;4476458;31;33497;-80
2022/10/21 04:01:02;;;;;;;16.67;8.50;;;;;;;6.34;70.63;100657.59;4474555;31;34546;-79
2022/10/21 04:03:30;;;;;;;13.48;8.13;;;;;;;6.10;72.01;100655.84;4483081;31;34057;-79
2022/10/21 04:05:57;;;;;;;14.15;7.65;;;;;;;6.35;71.95;100657.69;4493915;31;33592;-78
2022/10/21 04:08:24;;;;;;;14.35;8.52;;;;;;;6.46;70.77;100650.78;4475001;31;32939;-79
2022/10/21 04:10:52;;;;;;;15.27;8.38;;;;;;;6.15;71.30;100642.44;4496391;31;34575;-80
2022/10/21 04:13:24;;;;;;;14.38;8.85;;;;;;;6.50;71.92;100638.25;4490027;31;34009;-80
2022/10/21 04:16:04;;;;;;;18.87;10.05;;;;;;;6.01;74.61;100644.84;4478025;31;34094;-79
2022/10/21 04:18:32;;;;;;;18.67;10.48;;;;;;;5.78;76.97;100644.72;4469536;32;33711;-78
2022/10/21 04:20:59;;;;;;;18.80;9.85;;;;;;;5.96;76.66;100641.03;4492183;31;33822;-78
2022/10/21 04:23:27;;;;;;;19.58;10.77;;;;;;;5.94;76.52;100642.53;4477344;32;32217;-78
2022/10/21 04:25:54;;;;;;;18.62;10.23;;;;;;;6.12;76.44;100644.75;4498973;31;33642;-78
2022/10/21 04:28:21;;;;;;;14.45;8.77;;;;;;;6.38;75.96;100657.91;4488991;31;34487;-81
2022/10/21 04:30:49;;;;;;;15.63;9.30;;;;;;;6.53;75.15;100646.97;4488453;31;34400;-79
2022/10/21 04:33:17;;;;;;;16.65;9.43;;;;;;;6.70;74.84;100641.38;4482042;31;33719;-80
2022/10/21 04:35:44;;;;;;;16.98;10.18;;;;;;;6.58;75.35;100640.50;4485299;31;33445;-80
2022/10/21 04:38:12;;;;;;;19.58;10.48;;;;;;;6.65;75.03;100622.16;4478174;31;33606;-79
2022/10/21 04:40:40;;;;;;;18.55;10.00;;;;;;;6.40;76.35;100610.03;4489457;31;33935;-80
2022/10/21 04:43:08;;;;;;;23.77;12.55;;;;;;;6.47;75.91;100617.44;4490055;31;33836;-80
2022/10/21 04:45:39;;;;;;;26.25;11.95;;;;;;;6.72;74.92;100624.38;4478003;31;33738;-80
2022/10/21 04:48:06;;;;;;;27.50;14.30;;;;;;;6.61;75.62;100609.84;4483909;31;34643;-79
2022/10/21 04:50:34;;;;;;;22.75;12.90;;;;;;;6.39;76.09;100613.37;4480808;31;34695;-80
2022/10/21 04:53:01;;;;;;;24.52;13.32;;;;;;;6.31;76.71;100604.19;4497787;31;33703;-79
2022/10/21 04:55:28;;;;;;;21.27;12.48;;;;;;;6.61;75.40;100604.69;4494289;31;33546;-79
2022/10/21 04:57:56;;;;;;;20.35;11.48;;;;;;;6.97;74.01;100608.12;4488608;31;34761;-79
2022/10/21 05:00:23;;;;;;;20.23;10.43;;;;;;;6.95;73.92;100607.13;4481628;31;33960;-79
2022/10/21 05:02:51;;;;;;;19.65;10.55;;;;;;;7.20;72.89;100609.78;4476145;31;33827;-80
2022/10/21 05:05:18;;;;;;;19.85;10.55;;;;;;;6.95;73.86;100607.13;4485216;31;33390;-80
2022/10/21 05:07:46;;;;;;;21.60;12.30;;;;;;;7.28;72.80;100609.53;4497616;31;33710;-79
2022/10/21 05:10:13;;;;;;;22.35;11.07;;;;;;;7.33;72.31;100619.28;4478337;31;34519;-78
2022/10/21 05:12:41;;;;;;;15.63;9.40;;;;;;;7.03;72.90;100605.97;4488224;31;34118;-79
2022/10/21 05:15:09;;;;;;;17.35;10.32;;;;;;;6.88;73.27;100608.38;4483818;31;34511;-81
2022/10/21 05:17:36;;;;;;;24.55;11.00;;;;;;;6.80;74.88;100602.66;4481185;31;33976;-80
2022/10/21 05:20:05;;;;;;;20.50;11.50;;;;;;;6.62;74.85;100606.47;4471619;31;33947;-79
2022/10/21 05:22:33;;;;;;;22.90;10.80;;;;;;;6.67;74.58;100605.12;4496197;31;34297;-81
2022/10/21 05:25:00;;;;;;;20.15;11.52;;;;;;;7.25;72.86;100604.16;4491610;31;33439;-78
2022/10/21 05:27:28;;;;;;;20.60;10.32;;;;;;;7.05;73.36;100609.56;4491433;31;33731;-81
2022/10/21 05:29:57;;;;;;;22.30;10.88;;;;;;;6.82;73.45;100611.41;4476712;31;33444;-80
2022/10/21 05:32:24;;;;;;;24.00;10.85;;;;;;;7.16;72.65;100608.66;4475217;31;33848;-81
2022/10/21 05:34:52;;;;;;;19.12;10.45;;;;;;;7.01;73.28;100615.28;4482237;31;34264;-81
2022/10/21 05:37:19;;;;;;;22.23;11.18;;;;;;;6.88;73.78;100617.00;4480470;31;33659;-81
2022/10/21 05:39:46;;;;;;;21.87;12.27;;;;;;;7.46;72.04;100616.78;4484265;31;34655;-78
2022/10/21 05:42:14;;;;;;;20.08;11.18;;;;;;;7.48;71.47;100622.94;4479313;31;33755;-80
2022/10/21 05:44:42;;;;;;;19.33;10.40;;;;;;;8.15;69.07;100615.44;4488029;31;34157;-79
2022/10/21 05:47:09;;;;;;;21.98;12.23;;;;;;;7.17;72.33;100601.84;4497432;31;33766;-78
2022/10/21 05:49:36;;;;;;;18.08;10.48;;;;;;;7.06;72.86;100596.81;4490535;31;34601;-78
2022/10/21 05:52:04;;;;;;;15.95;9.30;;;;;;;7.11;72.54;100584.25;4496803;31;33932;-79
2022/10/21 05:54:31;;;;;;;20.67;10.50;;;;;;;7.39;71.96;100586.19;4473175;31;32915;-78
2022/10/21 05:56:59;;;;;;;20.95;11.50;;;;;;;7.56;71.08;100596.00;4476161;31;33687;-79
2022/10/21 05:59:26;;;;;;;19.33;10.88;;;;;;;7.32;71.96;100610.66;4482692;31;34445;-79
2022/10/21 06:01:54;;;;;;;18.67;10.05;;;;;;;7.51;71.39;100628.28;4478733;31;33861;-80
2022/10/21 06:04:21;;;;;;;21.02;10.90;;;;;;;7.91;70.12;100640.50;4483223;31;33631;-78
2022/10/21 06:06:49;;;;;;;20.95;11.25;;;;;;;8.03;69.66;100637.03;4489276;31;33790;-79
2022/10/21 06:09:16;;;;;;;20.58;11.12;;;;;;;8.31;68.76;100644.09;4483948;31;34590;-80
2022/10/21 06:11:44;;;;;;;20.35;11.50;;;;;;;8.50;68.12;100655.66;4485514;31;33747;-80
2022/10/21 06:14:11;;;;;;;21.70;11.75;;;;;;;8.33;68.90;100650.25;4487023;31;33521;-78
2022/10/21 06:16:38;;;;;;;18.85;10.50;;;;;;;8.16;68.84;100658.53;4479978;31;34615;-79
2022/10/21 06:19:06;;;;;;;22.37;11.20;;;;;;;8.21;68.68;100657.19;4481818;31;34573;-79
2022/10/21 06:21:34;;;;;;;20.23;12.37;;;;;;;8.49;67.82;100653.91;4477563;31;33865;-79
2022/10/21 06:24:01;;;;;;;22.62;10.93;;;;;;;8.28;68.90;100646.47;4481531;31;33575;-79
2022/10/21 06:26:29;;;;;;;23.73;11.25;;;;;;;8.08;69.24;100647.69;4487085;31;34616;-79
2022/10/21 06:29:02;;;;;;;20.23;11.40;;;;;;;8.61;67.57;100659.88;4478342;31;33907;-79
2022/10/21 06:31:29;;;;;;;15.57;9.68;;;;;;;8.76;67.34;100655.72;4477686;31;34378;-78
2022/10/21 06:33:57;;;;;;;18.55;10.32;;;;;;;8.66;67.91;100674.87;4479090;31;33219;-76
2022/10/21 06:36:24;;;;;;;18.08;10.70;;;;;;;8.81;67.74;100680.16;4483984;31;34390;-79
2022/10/21 06:38:52;;;;;;;22.05;9.98;;;;;;;8.74;67.60;100666.75;4479860;32;32325;-79
2022/10/21 06:41:20;;;;;;;21.08;10.57;;;;;;;8.64;67.71;100662.66;4488986;31;34043;-79
2022/10/21 06:43:47;;;;;;;20.15;10.88;;;;;;;9.07;66.31;100647.37;4489082;31;34036;-79
2022/10/21 06:46:15;;;;;;;21.62;11.38;;;;;;;8.91;66.96;100652.34;4484332;31;33679;-79
2022/10/21 06:48:42;;;;;;;19.15;10.57;;;;;;;9.06;66.38;100648.19;4482005;31;32070;-79
2022/10/21 06:51:18;;;;;;;23.02;12.00;;;;;;;9.16;66.32;100647.97;4486034;31;33522;-79
2022/10/21 06:53:46;;;;;;;21.33;11.00;;;;;;;8.76;67.69;100641.91;4488410;31;33793;-79
2022/10/21 06:56:16;;;;;;;23.67;11.25;;;;;;;8.92;67.27;100636.94;4488214;31;34605;-79
2022/10/21 06:58:48;;;;;;;18.80;10.05;;;;;;;8.64;68.53;100635.12;4482507;31;34650;-79
2022/10/21 07:01:22;;;;;;;20.30;11.18;;;;;;;9.00;67.83;100634.84;4478047;31;33553;-80
2022/10/21 07:04:08;;;;;;;20.70;10.25;;;;;;;8.88;68.40;100644.41;4478712;31;33346;-80
2022/10/21 07:06:36;;;;;;;19.80;9.50;;;;;;;8.90;67.95;100642.81;4476087;31;34476;-80
2022/10/21 07:09:05;;;;;;;17.17;9.02;;;;;;;9.01;67.25;100640.13;4482058;31;34441;-80
2022/10/21 07:11:32;;;;;;;15.35;8.70;;;;;;;9.01;67.12;100637.53;4493540;31;33892;-80
2022/10/21 07:14:00;;;;;;;17.02;8.50;;;;;;;9.25;66.29;100640.81;4482766;31;32833;-80
2022/10/21 07:16:30;;;;;;;15.57;7.75;;;;;;;9.20;66.00;100636.13;4479232;31;34545;-79
2022/10/21 07:18:58;;;;;;;14.87;7.78;;;;;;;9.13;66.07;100637.41;4482242;31;33099;-78
2022/10/21 07:21:28;;;;;;;16.67;7.53;;;;;;;9.45;64.62;100638.56;4476282;31;33683;-77
2022/10/21 07:23:57;;;;;;;15.82;8.68;;;;;;;9.32;64.42;100643.78;4476663;31;31976;-78
2022/10/21 07:26:28;;;;;;;13.90;7.75;;;;;;;9.64;63.82;100641.50;4476604;31;33313;-77
2022/10/21 07:28:57;;;;;;;13.95;8.18;;;;;;;9.68;63.82;100644.25;4479680;32;33792;-77
2022/10/21 07:31:26;;;;;;;13.00;7.78;;;;;;;9.94;63.62;100658.81;4482579;31;33954;-79
2022/10/21 07:33:54;;;;;;;11.05;7.20;;;;;;;9.65;64.07;100660.50;4480993;31;33277;-78
2022/10/21 07:36:24;;;;;;;12.52;7.35;;;;;;;10.29;61.71;100662.62;4486442;31;34490;-80
2022/10/21 07:38:53;;;;;;;15.27;7.47;;;;;;;10.34;61.17;100667.31;4490978;31;33875;-78
2022/10/21 07:41:27;;;;;;;15.00;7.93;;;;;;;10.50;60.50;100663.94;4474450;31;34067;-78
2022/10/21 07:43:54;;;;;;;15.57;8.10;;;;;;;10.68;59.88;100653.75;4495419;31;34171;-78
2022/10/21 07:46:23;;;;;;;13.62;6.93;;;;;;;10.60;60.87;100639.44;4476027;31;34723;-77
2022/10/21 07:48:50;;;;;;;11.95;6.07;;;;;;;10.43;60.45;100635.91;4479750;31;33840;-77
2022/10/21 07:51:20;;;;;;;13.07;6.85;;;;;;;10.57;59.03;100634.13;4487575;31;33836;-77
2022/10/21 07:53:52;;;;;;;13.60;6.87;;;;;;;11.00;58.24;100633.97;4480980;32;34109;-77
2022/10/21 07:56:22;;;;;;;13.98;6.80;;;;;;;11.32;57.51;100629.66;4487966;31;33704;-78
2022/10/21 07:58:51;;;;;;;9.95;5.70;;;;;;;11.38;57.25;100622.25;4494134;31;33916;-78
2022/10/21 08:01:19;;;;;;;11.73;7.22;;;;;;;10.94;58.11;100625.84;4484297;31;33779;-79
2022/10/21 08:03:47;;;;;;;14.55;6.57;;;;;;;10.85;58.19;100610.66;4483003;31;33326;-78
2022/10/21 08:06:16;;;;;;;12.77;6.50;;;;;;;11.15;57.42;100595.94;4480153;31;32379;-78
2022/10/21 08:08:44;;;;;;;11.68;6.15;;;;;;;11.38;56.83;100593.69;4484121;31;33681;-78
2022/10/21 08:11:20;;;;;;;11.27;6.35;;;;;;;11.34;57.00;100602.13;4479761;31;34021;-78
2022/10/21 08:13:48;;;;;;;14.85;6.93;;;;;;;11.04;57.39;100612.59;4485793;31;33502;-77
2022/10/21 08:16:15;;;;;;;14.38;6.35;;;;;;;11.10;56.47;100594.78;4486201;31;33922;-77
2022/10/21 08:18:43;;;;;;;11.45;5.78;;;;;;;10.89;57.54;100601.34;4482461;31;34050;-77
2022/10/21 08:21:10;;;;;;;9.65;6.07;;;;;;;10.78;57.44;100593.88;4477768;31;33571;-77
2022/10/21 08:23:38;;;;;;;11.68;6.40;;;;;;;10.93;57.64;100592.94;4482507;31;33196;-77
2022/10/21 08:26:08;;;;;;;13.23;6.32;;;;;;;11.06;57.04;100595.41;4488474;31;34042;-78
2022/10/21 08:28:36;;;;;;;13.70;6.85;;;;;;;11.28;56.95;100586.22;4490704;31;33012;-77
2022/10/21 08:31:13;;;;;;;9.88;6.25;;;;;;;11.48;56.25;100597.69;4489341;31;34922;-77
2022/10/21 08:33:41;;;;;;;11.23;6.18;;;;;;;11.84;55.24;100595.25;4496080;31;34504;-77
2022/10/21 08:36:17;;;;;;;12.18;6.70;;;;;;;11.98;54.51;100592.59;4488783;31;34549;-77
2022/10/21 08:38:44;;;;;;;11.70;6.95;;;;;;;11.94;54.64;100587.16;4497000;31;33573;-78
2022/10/21 08:41:29;;;;;;;11.65;5.90;;;;;;;12.03;54.44;100581.53;4486815;31;34378;-77
2022/10/21 08:44:08;;;;;;;10.50;6.00;;;;;;;12.14;54.54;100570.00;4488128;31;33328;-78
2022/10/21 08:46:44;;;;;;;11.93;6.93;;;;;;;12.58;53.41;100564.41;4477378;31;33708;-77
2022/10/21 08:49:16;;;;;;;11.38;6.22;;;;;;;12.89;52.14;100560.69;4483800;31;33717;-77
2022/10/21 08:51:49;;;;;;;8.93;5.60;;;;;;;12.41;53.66;100559.22;4490772;31;33682;-77
2022/10/21 08:54:24;;;;;;;11.43;5.97;;;;;;;12.36;53.80;100557.28;4480725;31;34319;-77
2022/10/21 08:56:57;;;;;;;13.62;6.05;;;;;;;12.49;53.25;100563.09;4480660;31;33758;-77
2022/10/21 08:59:25;;;;;;;10.70;6.70;;;;;;;12.92;52.18;100549.53;4489932;31;33706;-77
2022/10/21 09:02:02;;;;;;;9.38;5.40;;;;;;;12.85;52.25;100539.69;4498167;31;33968;-78
2022/10/21 09:04:45;;;;;;;10.00;5.18;;;;;;;13.35;51.38;100538.56;4475065;31;33554;-77
2022/10/21 09:07:35;;;;;;;7.43;4.72;;;;;;;13.42;51.11;100540.62;4486676;31;34114;-77
2022/10/21 09:10:16;;;;;;;10.52;4.72;;;;;;;13.49;51.09;100537.47;4488085;31;33743;-77
2022/10/21 09:13:14;;;;;;;8.68;4.97;;;;;;;13.89;48.74;100541.84;4486638;31;34587;-77
2022/10/21 09:16:00;;;;;;;8.57;5.30;;;;;;;13.66;50.20;100532.13;4466594;32;33795;-77
2022/10/21 09:18:36;;;;;;;11.30;4.80;;;;;;;14.01;49.63;100530.16;4472687;31;33812;-76
2022/10/21 09:21:16;;;;;;;8.05;4.87;;;;;;;14.24;48.86;100529.41;4474284;31;33744;-78
2022/10/21 09:23:57;;;;;;;9.68;4.90;;;;;;;13.69;49.36;100522.72;4477082;31;34720;-78
2022/10/21 09:26:40;;;;;;;9.23;4.55;;;;;;;13.96;48.41;100525.66;4486725;31;33408;-78
2022/10/21 09:29:13;;;;;;;10.40;4.80;;;;;;;13.95;48.48;100521.25;4498634;31;33868;-77
2022/10/21 09:31:42;;;;;;;9.10;4.45;;;;;;;14.36;47.39;100524.69;4490650;31;33189;-77
2022/10/21 09:34:39;;;;;;;7.15;3.85;;;;;;;14.43;47.99;100514.50;4477527;31;33782;-77
2022/10/21 09:37:14;;;;;;;10.60;4.75;;;;;;;14.12;47.17;100500.25;4483041;32;33254;-78
2022/10/21 09:39:46;;;;;;;8.45;4.57;;;;;;;14.04;47.07;100505.16;4484586;31;33717;-78
2022/10/21 09:42:13;;;;;;;7.53;3.50;;;;;;;13.71;48.58;100499.38;4471177;31;33771;-78
2022/10/21 09:45:01;;;;;;;12.82;4.40;;;;;;;14.23;46.32;100492.88;4471064;31;33579;-78
2022/10/21 09:47:28;;;;;;;11.27;4.62;;;;;;;14.61;46.09;100489.22;4482927;31;34123;-77
2022/10/21 09:49:57;;;;;;;10.00;4.70;;;;;;;14.57;46.64;100489.06;4482295;31;34508;-77
2022/10/21 09:52:35;;;;;;;6.85;3.78;;;;;;;13.97;46.61;100497.87;4474879;32;33532;-77
2022/10/21 09:55:03;;;;;;;11.25;4.10;;;;;;;14.08;47.50;100480.09;4476338;31;33712;-78
2022/10/21 09:57:41;;;;;;;8.82;3.95;;;;;;;14.39;47.00;100477.03;4485354;31;33324;-77
2022/10/21 10:00:09;;;;;;;8.73;3.72;;;;;;;14.70;46.11;100479.16;4471381;31;33996;-77
2022/10/21 10:02:43;;;;;;;8.00;4.05;;;;;;;14.84;45.68;100476.19;4481603;31;35341;-76
2022/10/21 10:05:48;;;;;;;10.23;4.87;;;;;;;14.74;46.01;100475.84;4475173;32;33868;-78
2022/10/21 10:08:21;;;;;;;9.40;4.03;;;;;;;14.63;46.10;100466.72;4472212;31;32009;-77
2022/10/21 10:10:48;;;;;;;10.60;4.60;;;;;;;14.87;45.85;100465.88;4486062;31;34330;-77
2022/10/21 10:13:18;;;;;;;7.65;3.70;;;;;;;14.80;46.16;100458.66;4493437;31;33755;-77
2022/10/21 10:15:46;;;;;;;7.28;3.97;;;;;;;14.67;46.16;100458.16;4479675;32;33509;-77
2022/10/21 10:18:21;;;;;;;10.52;4.40;;;;;;;14.63;45.99;100455.41;4494963;31;33435;-78
2022/10/21 10:21:09;;;;;;;10.13;4.30;;;;;;;14.58;46.23;100439.56;4482294;31;34538;-79
2022/10/21 10:23:53;;;;;;;7.65;3.90;;;;;;;14.81;45.36;100434.34;4485120;31;33363;-78
2022/10/21 10:26:25;;;;;;;9.05;3.72;;;;;;;14.78;44.95;100435.12;4484780;31;34446;-77
2022/10/21 10:28:56;;;;;;;6.97;3.75;;;;;;;14.81;45.09;100439.56;4500063;31;33236;-77
2022/10/21 10:31:30;;;;;;;9.65;3.53;;;;;;;15.24;44.91;100441.13;4483974;31;33987;-79
2022/10/21 10:34:07;;;;;;;7.25;3.83;;;;;;;14.85;45.09;100436.22;4471288;32;33675;-78
2022/10/21 10:36:39;;;;;;;7.05;3.78;;;;;;;15.52;44.43;100428.22;4477285;31;33681;-78
2022/10/21 10:39:27;;;;;;;9.00;4.22;;;;;;;15.81;43.39;100423.16;4489312;31;33389;-78
2022/10/21 10:41:55;;;;;;;6.78;3.95;;;;;;;15.80;43.15;100418.78;4481031;32;34060;-79
2022/10/21 10:44:38;;;;;;;8.57;4.32;;;;;;;15.77;42.65;100407.34;4477382;31;33853;-78
2022/10/21 10:47:15;;;;;;;10.80;4.72;;;;;;;15.28;44.47;100396.94;4477598;31;34549;-79
2022/10/21 10:49:43;;;;;;;8.63;4.50;;;;;;;15.68;43.47;100397.41;4460861;31;33327;-79
2022/10/21 10:52:10;;;;;;;8.30;4.30;;;;;;;15.66;43.00;100399.09;4485148;31;34688;-79
2022/10/21 10:54:39;;;;;;;8.60;4.18;;;;;;;16.05;42.76;100396.03;4497292;31;33796;-79
2022/10/21 10:57:23;;;;;;;9.32;4.72;;;;;;;15.52;44.14;100386.47;4498190;31;33784;-78
2022/10/21 11:00:17;;;;;;;10.02;4.15;;;;;;;15.16;44.40;100375.63;4475530;31;33147;-78
2022/10/21 11:03:02;;;;;;;9.90;4.82;;;;;;;15.46;44.10;100365.38;4491945;31;33798;-78
2022/10/21 11:05:36;;;;;;;7.87;4.25;;;;;;;15.35;43.89;100361.50;4478778;31;33563;-80
2022/10/21 11:08:16;;;;;;;12.93;4.87;;;;;;;15.50;44.04;100367.25;4476888;31;33900;-78
2022/10/21 11:10:46;;;;;;;9.07;5.10;;;;;;;15.46;43.96;100373.19;4492000;31;33403;-78
2022/10/21 11:13:16;;;;;;;14.75;5.10;;;;;;;15.52;44.21;100369.91;4487363;31;34311;-79
2022/10/21 11:16:18;;;;;;;10.45;4.80;;;;;;;15.32;43.81;100364.03;4478442;31;34562;-79
2022/10/21 11:19:15;;;;;;;7.80;4.70;;;;;;;15.50;43.72;100367.25;4481097;31;34529;-79
2022/10/21 11:21:45;;;;;;;15.05;5.18;;;;;;;15.59;44.15;100350.09;4486526;31;33066;-78
2022/10/21 11:24:26;;;;;;;19.15;7.55;;;;;;;16.10;43.23;100355.28;4500155;31;33948;-79
2022/10/21 11:27:44;;;;;;;12.95;5.28;;;;;;;16.10;43.13;100343.09;4479738;32;33813;-79
2022/10/21 11:30:18;;;;;;;9.82;4.35;;;;;;;16.08;42.84;100343.88;4449328;32;33636;-79
2022/10/21 11:33:02;;;;;;;17.65;5.07;;;;;;;15.91;43.01;100333.78;4430683;32;34079;-79
2022/10/21 11:36:15;;;;;;;7.87;4.15;;;;;;;16.22;42.50;100326.91;4462137;32;33755;-78
2022/10/21 11:38:48;;;;;;;8.30;4.05;;;;;;;15.83;42.91;100324.81;4480262;31;33694;-79
2022/10/21 11:41:24;;;;;;;9.88;4.30;;;;;;;15.51;43.32;100308.97;4491547;31;34571;-79
2022/10/21 11:43:57;;;;;;;9.70;4.22;;;;;;;16.08;41.78;100309.91;4490275;31;33555;-79